createdAt,value
2023-02-26T00:00:31.320Z,0.9
2023-02-26T00:01:39.864Z,1.1
2023-02-26T00:02:48.224Z,1.1
2023-02-26T00:03:56.560Z,1.1
2023-02-26T00:05:05.116Z,0.9
2023-02-26T00:06:13.492Z,0.9
2023-02-26T00:07:21.889Z,0.9
2023-02-26T00:08:30.424Z,1
2023-02-26T00:09:38.752Z,1
2023-02-26T00:10:47.117Z,1
2023-02-26T00:11:55.695Z,0.9
2023-02-26T00:13:04.032Z,0.9
2023-02-26T00:14:12.376Z,0.9
2023-02-26T00:15:20.934Z,1.1
2023-02-26T00:16:29.352Z,1.1
2023-02-26T00:17:37.639Z,1.1
2023-02-26T00:18:46.182Z,1
2023-02-26T00:19:54.536Z,1
2023-02-26T00:21:02.900Z,1
2023-02-26T00:22:11.453Z,1.3
2023-02-26T00:23:19.820Z,1.3
2023-02-26T00:24:28.159Z,1.3
2023-02-26T00:25:36.720Z,1.3
2023-02-26T00:26:45.085Z,1.3
2023-02-26T00:27:53.432Z,1.3
2023-02-26T00:29:01.980Z,1.2
2023-02-26T00:30:10.340Z,1.2
2023-02-26T00:31:18.813Z,1.2
2023-02-26T00:32:27.283Z,1.1
2023-02-26T00:33:35.615Z,1.1
2023-02-26T00:34:43.953Z,1.1
2023-02-26T00:35:52.520Z,1.1
2023-02-26T00:37:00.872Z,1.1
2023-02-26T00:38:09.228Z,1.1
2023-02-26T00:39:17.799Z,1.4
2023-02-26T00:40:26.124Z,1.4
2023-02-26T00:41:34.517Z,1.4
2023-02-26T00:42:43.050Z,1.4
2023-02-26T00:43:51.394Z,1.4
2023-02-26T00:44:59.753Z,1.4
2023-02-26T00:46:08.351Z,1.3
2023-02-26T00:47:16.698Z,1.3
2023-02-26T00:48:25.038Z,1.3
2023-02-26T00:49:33.595Z,1.2
2023-02-26T00:50:41.941Z,1.2
2023-02-26T00:51:50.298Z,1.2
2023-02-26T00:52:58.860Z,1.5
2023-02-26T00:54:07.212Z,1.5
2023-02-26T00:55:15.601Z,1.5
2023-02-26T00:56:24.524Z,1.6
2023-02-26T00:57:32.473Z,1.6
2023-02-26T00:58:40.843Z,1.6
2023-02-26T00:59:49.385Z,1.4
2023-02-26T01:00:57.722Z,1.4
2023-02-26T01:02:06.088Z,1.4
2023-02-26T01:03:14.637Z,1.7
2023-02-26T01:04:23.006Z,1.7
2023-02-26T01:05:31.343Z,1.7
2023-02-26T01:06:39.903Z,1.2
2023-02-26T01:07:48.250Z,1.2
2023-02-26T01:08:56.604Z,1.2
2023-02-26T01:10:05.184Z,1.6
2023-02-26T01:11:13.573Z,1.6
2023-02-26T01:12:21.890Z,1.6
2023-02-26T01:13:30.452Z,1.5
2023-02-26T01:14:38.796Z,1.5
2023-02-26T01:15:47.185Z,1.5
2023-02-26T01:16:55.720Z,1.6
2023-02-26T01:18:05.437Z,1.6
2023-02-26T01:19:12.421Z,1.6
2023-02-26T01:20:20.985Z,1.5
2023-02-26T01:21:29.333Z,1.5
2023-02-26T01:22:37.681Z,1.5
2023-02-26T01:23:46.247Z,1.6
2023-02-26T01:24:54.590Z,1.6
2023-02-26T01:26:02.944Z,1.6
2023-02-26T01:27:11.536Z,1.7
2023-02-26T01:28:19.903Z,1.7
2023-02-26T01:29:28.197Z,1.7
2023-02-26T01:30:36.942Z,1.6
2023-02-26T01:31:45.289Z,1.6
2023-02-26T01:32:53.488Z,1.6
2023-02-26T01:34:02.059Z,1.8
2023-02-26T01:35:10.433Z,1.8
2023-02-26T01:36:18.784Z,1.8
2023-02-26T01:37:27.331Z,1.8
2023-02-26T01:38:35.684Z,1.8
2023-02-26T01:39:44.025Z,1.8
2023-02-26T01:40:52.588Z,1.6
2023-02-26T01:42:00.966Z,1.6
2023-02-26T01:43:09.320Z,1.6
2023-02-26T01:44:17.847Z,2.1
2023-02-26T01:45:26.232Z,2.1
2023-02-26T01:46:34.796Z,2.1
2023-02-26T01:47:43.144Z,1.6
2023-02-26T01:48:51.494Z,1.6
2023-02-26T01:49:59.835Z,1.6
2023-02-26T01:51:08.382Z,1.7
2023-02-26T01:52:16.751Z,1.7
2023-02-26T01:53:25.084Z,1.7
2023-02-26T01:54:33.648Z,1.5
2023-02-26T01:55:41.984Z,1.5
2023-02-26T01:56:50.339Z,1.5
2023-02-26T01:57:58.909Z,1.6
2023-02-26T01:59:07.266Z,1.6
2023-02-26T02:00:15.605Z,1.6
2023-02-26T02:01:24.154Z,1.4
2023-02-26T02:02:32.578Z,1.4
2023-02-26T02:03:40.889Z,1.4
2023-02-26T02:04:49.404Z,1.6
2023-02-26T02:05:57.750Z,1.6
2023-02-26T02:07:06.113Z,1.6
2023-02-26T02:08:14.666Z,1.3
2023-02-26T02:09:23.038Z,1.3
2023-02-26T02:10:31.375Z,1.3
2023-02-26T02:11:39.971Z,1.6
2023-02-26T02:12:48.281Z,1.6
2023-02-26T02:13:56.642Z,1.6
2023-02-26T02:15:05.218Z,1.6
2023-02-26T02:16:13.612Z,1.6
2023-02-26T02:17:21.917Z,1.6
2023-02-26T02:18:30.471Z,1.6
2023-02-26T02:19:38.821Z,1.6
2023-02-26T02:20:47.159Z,1.6
2023-02-26T02:21:55.731Z,1.6
2023-02-26T02:23:04.102Z,1.6
2023-02-26T02:24:12.420Z,1.6
2023-02-26T02:25:20.984Z,1.6
2023-02-26T02:26:29.323Z,1.6
2023-02-26T02:27:37.714Z,1.6
2023-02-26T02:28:46.262Z,1.5
2023-02-26T02:29:54.590Z,1.5
2023-02-26T02:31:03.070Z,1.5
2023-02-26T02:32:11.630Z,1.5
2023-02-26T02:33:19.852Z,1.5
2023-02-26T02:34:28.197Z,1.5
2023-02-26T02:35:36.754Z,1.3
2023-02-26T02:36:45.110Z,1.3
2023-02-26T02:37:53.477Z,1.3
2023-02-26T02:39:02.022Z,1.6
2023-02-26T02:40:10.361Z,1.6
2023-02-26T02:41:18.727Z,1.6
2023-02-26T02:42:27.306Z,1.6
2023-02-26T02:43:35.649Z,1.6
2023-02-26T02:44:43.994Z,1.6
2023-02-26T02:45:52.687Z,1.6
2023-02-26T02:47:00.961Z,1.6
2023-02-26T02:48:09.288Z,1.6
2023-02-26T02:49:17.832Z,1.4
2023-02-26T02:50:26.202Z,1.4
2023-02-26T02:51:34.525Z,1.4
2023-02-26T02:52:43.092Z,1.6
2023-02-26T02:53:51.423Z,1.6
2023-02-26T02:54:59.801Z,1.6
2023-02-26T02:56:08.352Z,1.6
2023-02-26T02:57:16.688Z,1.6
2023-02-26T02:58:25.033Z,1.6
2023-02-26T02:59:33.588Z,1.4
2023-02-26T03:00:42.016Z,1.4
2023-02-26T03:01:50.311Z,1.4
2023-02-26T03:02:59.062Z,1.7
2023-02-26T03:04:07.246Z,1.7
2023-02-26T03:05:15.561Z,1.7
2023-02-26T03:06:24.125Z,1.4
2023-02-26T03:07:32.493Z,1.4
2023-02-26T03:08:40.837Z,1.4
2023-02-26T03:09:49.400Z,1.6
2023-02-26T03:10:57.741Z,1.6
2023-02-26T03:12:06.086Z,1.6
2023-02-26T03:13:14.656Z,1.6
2023-02-26T03:14:23.010Z,1.6
2023-02-26T03:15:31.360Z,1.6
2023-02-26T03:16:40.034Z,1.3
2023-02-26T03:17:48.305Z,1.3
2023-02-26T03:18:56.690Z,1.3
2023-02-26T03:20:05.216Z,1.3
2023-02-26T03:21:13.569Z,1.3
2023-02-26T03:22:21.905Z,1.3
2023-02-26T03:23:30.491Z,1.7
2023-02-26T03:24:38.816Z,1.7
2023-02-26T03:25:47.174Z,1.7
2023-02-26T03:26:55.735Z,1.6
2023-02-26T03:28:04.109Z,1.6
2023-02-26T03:29:12.457Z,1.6
2023-02-26T03:30:21.022Z,1.6
2023-02-26T03:31:29.478Z,1.6
2023-02-26T03:32:37.726Z,1.6
2023-02-26T03:33:46.278Z,1.7
2023-02-26T03:34:54.652Z,1.7
2023-02-26T03:36:03.018Z,1.7
2023-02-26T03:37:11.583Z,1.9
2023-02-26T03:38:19.947Z,1.9
2023-02-26T03:39:28.308Z,1.9
2023-02-26T03:40:36.903Z,1.6
2023-02-26T03:41:45.260Z,1.6
2023-02-26T03:42:53.644Z,1.6
2023-02-26T03:44:02.186Z,1.6
2023-02-26T03:45:10.535Z,1.6
2023-02-26T03:46:18.952Z,1.6
2023-02-26T03:47:27.484Z,1.7
2023-02-26T03:48:35.818Z,1.7
2023-02-26T03:49:44.188Z,1.7
2023-02-26T03:50:52.758Z,1.6
2023-02-26T03:52:01.101Z,1.6
2023-02-26T03:53:09.449Z,1.6
2023-02-26T03:54:17.993Z,1.7
2023-02-26T03:55:26.359Z,1.7
2023-02-26T03:56:34.698Z,1.7
2023-02-26T03:57:43.276Z,1.8
2023-02-26T03:58:51.640Z,1.8
2023-02-26T03:59:59.981Z,1.8
2023-02-26T04:01:08.537Z,1.7
2023-02-26T04:02:16.892Z,1.7
2023-02-26T04:03:25.254Z,1.7
2023-02-26T04:04:33.807Z,1.6
2023-02-26T04:05:42.169Z,1.6
2023-02-26T04:06:50.521Z,1.6
2023-02-26T04:07:59.075Z,1.8
2023-02-26T04:09:07.428Z,1.8
2023-02-26T04:10:15.835Z,1.8
2023-02-26T04:11:24.385Z,1.4
2023-02-26T04:12:32.743Z,1.4
2023-02-26T04:13:41.114Z,1.4
2023-02-26T04:14:49.665Z,1.4
2023-02-26T04:15:58.024Z,1.4
2023-02-26T04:17:06.380Z,1.4
2023-02-26T04:18:14.931Z,1.3
2023-02-26T04:19:23.285Z,1.3
2023-02-26T04:20:31.622Z,1.3
2023-02-26T04:21:40.354Z,1.3
2023-02-26T04:22:48.677Z,1.3
2023-02-26T04:23:57.025Z,1.3
2023-02-26T04:25:05.598Z,1.4
2023-02-26T04:26:13.964Z,1.4
2023-02-26T04:27:22.304Z,1.4
2023-02-26T04:28:30.884Z,1.4
2023-02-26T04:29:39.221Z,1.4
2023-02-26T04:30:47.657Z,1.4
2023-02-26T04:31:56.255Z,1.5
2023-02-26T04:33:04.516Z,1.5
2023-02-26T04:34:12.872Z,1.5
2023-02-26T04:35:21.420Z,1.5
2023-02-26T04:36:29.774Z,1.5
2023-02-26T04:37:38.114Z,1.5
2023-02-26T04:38:46.711Z,1.4
2023-02-26T04:39:55.045Z,1.4
2023-02-26T04:41:03.399Z,1.4
2023-02-26T04:42:11.924Z,1.8
2023-02-26T04:43:20.288Z,1.8
2023-02-26T04:44:28.652Z,1.8
2023-02-26T04:45:37.203Z,1.5
2023-02-26T04:46:45.551Z,1.5
2023-02-26T04:47:53.936Z,1.5
2023-02-26T04:49:02.546Z,1.7
2023-02-26T04:50:10.879Z,1.7
2023-02-26T04:51:19.238Z,1.7
2023-02-26T04:52:27.866Z,1.6
2023-02-26T04:53:36.135Z,1.6
2023-02-26T04:54:44.485Z,1.6
2023-02-26T04:55:53.000Z,1.5
2023-02-26T04:57:01.344Z,1.5
2023-02-26T04:58:09.678Z,1.5
2023-02-26T04:59:18.212Z,1.7
2023-02-26T05:00:26.540Z,1.7
2023-02-26T05:01:34.883Z,1.7
2023-02-26T05:02:43.413Z,1.7
2023-02-26T05:03:51.746Z,1.7
2023-02-26T05:05:00.117Z,1.7
2023-02-26T05:06:08.625Z,2
2023-02-26T05:07:16.974Z,2
2023-02-26T05:08:25.292Z,2
2023-02-26T05:09:33.842Z,2.2
2023-02-26T05:10:42.216Z,2.2
2023-02-26T05:11:50.555Z,2.2
2023-02-26T05:12:59.087Z,2.4
2023-02-26T05:14:07.446Z,2.4
2023-02-26T05:15:15.789Z,2.4
2023-02-26T05:16:24.760Z,2.3
2023-02-26T05:17:32.660Z,2.3
2023-02-26T05:18:40.978Z,2.3
2023-02-26T05:19:49.542Z,2.8
2023-02-26T05:20:57.873Z,2.8
2023-02-26T05:22:06.212Z,2.8
2023-02-26T05:23:14.758Z,3.1
2023-02-26T05:24:23.085Z,3.1
2023-02-26T05:25:31.435Z,3.1
2023-02-26T05:26:40.011Z,3.3
2023-02-26T05:27:48.305Z,3.3
2023-02-26T05:28:56.626Z,3.3
2023-02-26T05:30:05.175Z,3.7
2023-02-26T05:31:13.596Z,3.7
2023-02-26T05:32:21.883Z,3.7
2023-02-26T05:33:30.393Z,3.7
2023-02-26T05:34:38.719Z,3.7
2023-02-26T05:35:47.050Z,3.7
2023-02-26T05:36:55.583Z,3.3
2023-02-26T05:38:03.907Z,3.3
2023-02-26T05:39:12.248Z,3.3
2023-02-26T05:40:20.788Z,3
2023-02-26T05:41:29.121Z,3
2023-02-26T05:42:37.471Z,3
2023-02-26T05:43:45.980Z,3.5
2023-02-26T05:44:54.327Z,3.5
2023-02-26T05:46:02.650Z,3.5
2023-02-26T05:47:11.216Z,3.8
2023-02-26T05:48:19.541Z,3.8
2023-02-26T05:49:27.873Z,3.8
2023-02-26T05:50:36.412Z,3.8
2023-02-26T05:51:44.752Z,3.8
2023-02-26T05:52:53.085Z,3.8
2023-02-26T05:54:01.612Z,3.4
2023-02-26T05:55:09.962Z,3.4
2023-02-26T05:56:18.285Z,3.4
2023-02-26T05:57:26.836Z,3.5
2023-02-26T05:58:35.194Z,3.5
2023-02-26T05:59:43.486Z,3.5
2023-02-26T06:00:52.028Z,3.8
2023-02-26T06:02:00.345Z,3.8
2023-02-26T06:03:08.786Z,3.8
2023-02-26T06:04:17.204Z,3.7
2023-02-26T06:05:25.543Z,3.7
2023-02-26T06:06:33.876Z,3.7
2023-02-26T06:07:42.409Z,3.7
2023-02-26T06:08:50.743Z,3.7
2023-02-26T06:09:59.094Z,3.7
2023-02-26T06:11:07.630Z,4.2
2023-02-26T06:12:15.960Z,4.2
2023-02-26T06:13:24.295Z,4.2
2023-02-26T06:14:32.863Z,4.2
2023-02-26T06:15:41.165Z,4.2
2023-02-26T06:16:49.508Z,4.2
2023-02-26T06:17:58.041Z,4
2023-02-26T06:19:06.377Z,4
2023-02-26T06:20:14.726Z,4
2023-02-26T06:21:23.256Z,4.1
2023-02-26T06:22:31.555Z,4.1
2023-02-26T06:23:39.921Z,4.1
2023-02-26T06:24:48.453Z,4.3
2023-02-26T06:25:56.806Z,4.3
2023-02-26T06:27:05.119Z,4.3
2023-02-26T06:28:13.668Z,5.6
2023-02-26T06:29:22.028Z,5.6
2023-02-26T06:30:30.417Z,5.6
2023-02-26T06:31:38.995Z,4.8
2023-02-26T06:32:47.407Z,4.8
2023-02-26T06:33:55.654Z,4.8
2023-02-26T06:35:04.204Z,4.5
2023-02-26T06:36:12.593Z,4.5
2023-02-26T06:37:20.933Z,4.5
2023-02-26T06:38:29.488Z,3.9
2023-02-26T06:39:37.831Z,3.9
2023-02-26T06:40:46.177Z,3.9
2023-02-26T06:41:54.740Z,3.8
2023-02-26T06:43:03.084Z,3.8
2023-02-26T06:44:11.481Z,3.8
2023-02-26T06:45:20.018Z,3.9
2023-02-26T06:46:28.458Z,3.9
2023-02-26T06:47:36.724Z,3.9
2023-02-26T06:48:45.267Z,4.2
2023-02-26T06:49:53.631Z,4.2
2023-02-26T06:51:02.004Z,4.2
2023-02-26T06:52:10.581Z,4.3
2023-02-26T06:53:18.963Z,4.3
2023-02-26T06:54:27.299Z,4.3
2023-02-26T06:55:35.883Z,4.5
2023-02-26T06:56:44.238Z,4.5
2023-02-26T06:57:52.587Z,4.5
2023-02-26T06:59:01.141Z,13.8
2023-02-26T07:00:09.552Z,13.8
2023-02-26T07:01:17.937Z,13.8
2023-02-26T07:02:26.531Z,3.9
2023-02-26T07:03:34.782Z,3.9
2023-02-26T07:04:43.161Z,3.9
2023-02-26T07:05:51.884Z,4.8
2023-02-26T07:07:00.172Z,4.8
2023-02-26T07:08:08.538Z,4.8
2023-02-26T07:09:17.160Z,4.6
2023-02-26T07:10:25.469Z,4.6
2023-02-26T07:11:33.810Z,4.6
2023-02-26T07:12:42.355Z,5.6
2023-02-26T07:13:50.677Z,5.6
2023-02-26T07:14:59.015Z,5.6
2023-02-26T07:16:07.577Z,11.2
2023-02-26T07:17:15.890Z,11.2
2023-02-26T07:18:24.243Z,11.2
2023-02-26T07:19:32.774Z,21.700001
2023-02-26T07:20:41.101Z,21.700001
2023-02-26T07:21:49.437Z,21.700001
2023-02-26T07:22:57.995Z,10.4
2023-02-26T07:24:06.327Z,10.4
2023-02-26T07:25:14.687Z,10.4
2023-02-26T07:26:23.418Z,35.299999
2023-02-26T07:27:31.551Z,35.299999
2023-02-26T07:28:39.871Z,35.299999
2023-02-26T07:29:48.423Z,30.5
2023-02-26T07:30:56.913Z,30.5
2023-02-26T07:32:05.190Z,30.5
2023-02-26T07:33:13.885Z,46.900002
2023-02-26T07:34:22.000Z,46.900002
2023-02-26T07:35:30.325Z,46.900002
2023-02-26T07:36:38.872Z,24.700001
2023-02-26T07:37:47.212Z,24.700001
2023-02-26T07:38:55.543Z,24.700001
2023-02-26T07:40:04.080Z,3.5
2023-02-26T07:41:12.480Z,3.5
2023-02-26T07:42:21.176Z,3.5
2023-02-26T07:43:29.779Z,5.9
2023-02-26T07:44:38.108Z,5.9
2023-02-26T07:45:46.486Z,5.9
2023-02-26T07:46:54.980Z,4.6
2023-02-26T07:48:03.295Z,4.6
2023-02-26T07:49:11.660Z,4.6
2023-02-26T07:50:20.226Z,6.7
2023-02-26T07:51:29.742Z,6.7
2023-02-26T07:52:37.372Z,6.7
2023-02-26T07:53:45.716Z,4.1
2023-02-26T07:54:54.063Z,4.1
2023-02-26T07:56:02.421Z,4.1
2023-02-26T07:57:10.997Z,3.8
2023-02-26T07:58:19.328Z,3.8
2023-02-26T07:59:27.672Z,3.8
2023-02-26T08:00:36.220Z,3.7
2023-02-26T08:01:44.595Z,3.7
2023-02-26T08:02:52.900Z,3.7
2023-02-26T08:04:01.515Z,3.3
2023-02-26T08:05:09.782Z,3.3
2023-02-26T08:06:18.131Z,3.3
2023-02-26T08:07:26.642Z,3.5
2023-02-26T08:08:34.971Z,3.5
2023-02-26T08:09:43.320Z,3.5
2023-02-26T08:10:51.881Z,3.8
2023-02-26T08:12:00.232Z,3.8
2023-02-26T08:13:08.563Z,3.8
2023-02-26T08:14:17.101Z,3.3
2023-02-26T08:15:25.426Z,3.3
2023-02-26T08:16:33.775Z,3.3
2023-02-26T08:17:42.320Z,3.4
2023-02-26T08:18:50.656Z,3.4
2023-02-26T08:19:59.010Z,3.4
2023-02-26T08:21:07.552Z,3.7
2023-02-26T08:22:15.934Z,3.7
2023-02-26T08:23:24.219Z,3.7
2023-02-26T08:24:32.771Z,3
2023-02-26T08:25:41.128Z,3
2023-02-26T08:26:49.465Z,3
2023-02-26T08:27:58.031Z,2.7
2023-02-26T08:29:06.350Z,2.7
2023-02-26T08:30:14.686Z,2.7
2023-02-26T08:31:23.351Z,2.7
2023-02-26T08:32:31.615Z,2.7
2023-02-26T08:33:39.925Z,2.7
2023-02-26T08:34:48.482Z,3.9
2023-02-26T08:35:56.807Z,3.9
2023-02-26T08:37:05.159Z,3.9
2023-02-26T08:38:13.703Z,2.7
2023-02-26T08:39:22.003Z,2.7
2023-02-26T08:40:30.335Z,2.7
2023-02-26T08:41:38.894Z,2.7
2023-02-26T08:42:47.234Z,2.7
2023-02-26T08:43:55.571Z,2.7
2023-02-26T08:45:04.101Z,3.1
2023-02-26T08:46:12.472Z,3.1
2023-02-26T08:47:28.342Z,3.1
2023-02-26T08:48:29.336Z,3.1
2023-02-26T08:49:37.656Z,3.1
2023-02-26T08:50:46.041Z,3.1
2023-02-26T08:51:54.546Z,3.2
2023-02-26T08:53:02.874Z,3.2
2023-02-26T08:54:11.227Z,3.2
2023-02-26T08:55:19.732Z,3.1
2023-02-26T08:56:28.367Z,3.1
2023-02-26T08:57:36.411Z,3.1
2023-02-26T08:58:44.941Z,2.8
2023-02-26T08:59:53.283Z,2.8
2023-02-26T09:01:01.624Z,2.8
2023-02-26T09:02:10.283Z,3.1
2023-02-26T09:03:18.481Z,3.1
2023-02-26T09:04:28.202Z,3.1
2023-02-26T09:05:35.352Z,4.5
2023-02-26T09:06:43.698Z,4.5
2023-02-26T09:07:52.023Z,4.5
2023-02-26T09:09:00.574Z,7.2
2023-02-26T09:10:08.922Z,7.2
2023-02-26T09:11:17.244Z,7.2
2023-02-26T09:12:25.786Z,4.8
2023-02-26T09:13:34.122Z,4.8
2023-02-26T09:14:42.473Z,4.8
2023-02-26T09:15:51.000Z,3.1
2023-02-26T09:16:59.334Z,3.1
2023-02-26T09:18:07.658Z,3.1
2023-02-26T09:19:16.220Z,3.1
2023-02-26T09:20:24.558Z,3.1
2023-02-26T09:21:32.894Z,3.1
2023-02-26T09:22:41.417Z,3.5
2023-02-26T09:23:49.757Z,3.5
2023-02-26T09:24:58.139Z,3.5
2023-02-26T09:26:06.642Z,5.9
2023-02-26T09:27:14.947Z,5.9
2023-02-26T09:28:23.350Z,5.9
2023-02-26T09:29:31.830Z,4.4
2023-02-26T09:30:40.173Z,4.4
2023-02-26T09:31:48.576Z,4.4
2023-02-26T09:32:57.050Z,3.8
2023-02-26T09:34:05.385Z,3.8
2023-02-26T09:35:13.727Z,3.8
2023-02-26T09:36:22.277Z,3
2023-02-26T09:37:30.619Z,3
2023-02-26T09:38:38.967Z,3
2023-02-26T09:39:47.507Z,2.5
2023-02-26T09:40:55.842Z,2.5
2023-02-26T09:42:04.231Z,2.5
2023-02-26T09:43:12.730Z,2.4
2023-02-26T09:44:21.075Z,2.4
2023-02-26T09:45:29.426Z,2.4
2023-02-26T09:46:37.970Z,2.9
2023-02-26T09:47:46.277Z,2.9
2023-02-26T09:48:54.722Z,2.9
2023-02-26T09:50:03.264Z,2.6
2023-02-26T09:51:11.613Z,2.6
2023-02-26T09:52:19.947Z,2.6
2023-02-26T09:53:28.506Z,3
2023-02-26T09:54:36.855Z,3
2023-02-26T09:55:45.181Z,3
2023-02-26T09:56:53.750Z,2.9
2023-02-26T09:58:02.139Z,2.9
2023-02-26T09:59:10.413Z,2.9
2023-02-26T10:00:18.927Z,4
2023-02-26T10:01:27.350Z,4
2023-02-26T10:02:35.608Z,4
2023-02-26T10:03:44.173Z,3.4
2023-02-26T10:04:52.491Z,3.4
2023-02-26T10:06:00.831Z,3.4
2023-02-26T10:07:09.407Z,3.7
2023-02-26T10:08:17.762Z,3.7
2023-02-26T10:09:26.091Z,3.7
2023-02-26T10:10:34.642Z,7.1
2023-02-26T10:11:42.986Z,7.1
2023-02-26T10:12:51.307Z,7.1
2023-02-26T10:13:59.891Z,7.3
2023-02-26T10:15:08.197Z,7.3
2023-02-26T10:16:16.560Z,7.3
2023-02-26T10:17:25.083Z,3
2023-02-26T10:18:33.445Z,3
2023-02-26T10:19:41.779Z,3
2023-02-26T10:20:50.389Z,2.8
2023-02-26T10:21:58.672Z,2.8
2023-02-26T10:23:07.019Z,2.8
2023-02-26T10:24:15.561Z,2.7
2023-02-26T10:25:23.891Z,2.7
2023-02-26T10:26:32.244Z,2.7
2023-02-26T10:27:40.779Z,3
2023-02-26T10:28:49.129Z,3
2023-02-26T10:29:57.514Z,3
2023-02-26T10:31:06.059Z,2.9
2023-02-26T10:32:14.476Z,2.9
2023-02-26T10:33:22.667Z,2.9
2023-02-26T10:34:31.210Z,2.7
2023-02-26T10:35:39.539Z,2.7
2023-02-26T10:36:47.883Z,2.7
2023-02-26T10:37:56.426Z,2.5
2023-02-26T10:39:04.774Z,2.5
2023-02-26T10:40:13.080Z,2.5
2023-02-26T10:41:21.622Z,6.8
2023-02-26T10:42:29.962Z,6.8
2023-02-26T10:43:38.297Z,6.8
2023-02-26T10:44:46.834Z,3.3
2023-02-26T10:45:55.197Z,3.3
2023-02-26T10:47:03.509Z,3.3
2023-02-26T10:48:12.051Z,2.7
2023-02-26T10:49:20.393Z,2.7
2023-02-26T10:50:28.728Z,2.7
2023-02-26T10:51:37.263Z,2.4
2023-02-26T10:52:45.599Z,2.4
2023-02-26T10:53:53.933Z,2.4
2023-02-26T10:55:02.478Z,3.1
2023-02-26T10:56:10.806Z,3.1
2023-02-26T10:57:19.144Z,3.1
2023-02-26T10:58:27.685Z,2.5
2023-02-26T10:59:35.999Z,2.5
2023-02-26T11:00:44.332Z,2.5
2023-02-26T11:01:52.894Z,2.8
2023-02-26T11:03:01.312Z,2.8
2023-02-26T11:04:09.638Z,2.8
2023-02-26T11:05:18.179Z,2.3
2023-02-26T11:06:26.552Z,2.3
2023-02-26T11:07:34.924Z,2.3
2023-02-26T11:08:43.484Z,4
2023-02-26T11:09:51.799Z,4
2023-02-26T11:11:00.128Z,4
2023-02-26T11:12:08.683Z,2.1
2023-02-26T11:13:17.011Z,2.1
2023-02-26T11:14:27.206Z,2.1
2023-02-26T11:15:33.935Z,5.5
2023-02-26T11:16:42.272Z,5.5
2023-02-26T11:17:50.686Z,5.5
2023-02-26T11:18:59.999Z,1.8
2023-02-26T11:20:08.367Z,1.8
2023-02-26T11:21:16.743Z,1.8
2023-02-26T11:22:25.807Z,2.9
2023-02-26T11:23:34.129Z,2.9
2023-02-26T11:24:42.457Z,2.9
2023-02-26T11:25:51.040Z,2.2
2023-02-26T11:26:59.368Z,2.2
2023-02-26T11:28:07.719Z,2.2
2023-02-26T11:29:16.247Z,1.9
2023-02-26T11:30:24.596Z,1.9
2023-02-26T11:31:33.096Z,1.9
2023-02-26T11:32:41.466Z,1.8
2023-02-26T11:33:49.832Z,1.8
2023-02-26T11:34:58.147Z,1.8
2023-02-26T11:36:06.680Z,2.7
2023-02-26T11:37:15.031Z,2.7
2023-02-26T11:38:23.405Z,2.7
2023-02-26T11:39:31.908Z,2.9
2023-02-26T11:40:40.228Z,2.9
2023-02-26T11:41:48.562Z,2.9
2023-02-26T11:42:57.127Z,3
2023-02-26T11:44:05.535Z,3
2023-02-26T11:45:13.848Z,3
2023-02-26T11:46:22.435Z,2.3
2023-02-26T11:47:30.756Z,2.3
2023-02-26T11:48:39.083Z,2.3
2023-02-26T11:49:47.654Z,2.5
2023-02-26T11:50:55.952Z,2.5
2023-02-26T11:52:04.285Z,2.5
2023-02-26T11:53:12.835Z,6.7
2023-02-26T11:54:21.161Z,6.7
2023-02-26T11:55:29.497Z,6.7
2023-02-26T11:56:38.029Z,3.7
2023-02-26T11:57:46.372Z,3.7
2023-02-26T11:58:55.338Z,3.7
2023-02-26T12:00:03.239Z,4.1
2023-02-26T12:01:11.575Z,4.1
2023-02-26T12:02:19.982Z,4.1
2023-02-26T12:03:28.526Z,2.2
2023-02-26T12:04:36.826Z,2.2
2023-02-26T12:05:45.179Z,2.2
2023-02-26T12:06:53.696Z,5.6
2023-02-26T12:08:02.044Z,5.6
2023-02-26T12:09:10.365Z,5.6
2023-02-26T12:10:18.914Z,1.7
2023-02-26T12:11:27.572Z,1.7
2023-02-26T12:12:35.597Z,1.7
2023-02-26T12:13:44.126Z,1.8
2023-02-26T12:14:52.459Z,1.8
2023-02-26T12:16:00.799Z,1.8
2023-02-26T12:17:09.339Z,1.6
2023-02-26T12:18:17.717Z,1.6
2023-02-26T12:19:26.047Z,1.6
2023-02-26T12:20:34.606Z,1.4
2023-02-26T12:21:42.982Z,1.4
2023-02-26T12:22:51.282Z,1.4
2023-02-26T12:23:59.823Z,1.2
2023-02-26T12:25:08.165Z,1.2
2023-02-26T12:26:16.490Z,1.2
2023-02-26T12:27:25.031Z,1.3
2023-02-26T12:28:33.359Z,1.3
2023-02-26T12:29:41.783Z,1.3
2023-02-26T12:30:50.345Z,1.9
2023-02-26T12:31:58.768Z,1.9
2023-02-26T12:33:07.018Z,1.9
2023-02-26T12:34:15.556Z,1.8
2023-02-26T12:35:23.877Z,1.8
2023-02-26T12:36:46.601Z,1.8
2023-02-26T12:37:40.768Z,1.4
2023-02-26T12:38:49.079Z,1.4
2023-02-26T12:39:57.428Z,1.4
2023-02-26T12:41:05.951Z,4.6
2023-02-26T12:42:14.285Z,4.6
2023-02-26T12:43:22.617Z,4.6
2023-02-26T12:44:31.173Z,10.1
2023-02-26T12:45:39.535Z,10.1
2023-02-26T12:46:47.917Z,10.1
2023-02-26T12:47:56.388Z,4.3
2023-02-26T12:49:04.732Z,4.3
2023-02-26T12:50:13.078Z,4.3
2023-02-26T12:51:21.633Z,3.6
2023-02-26T12:52:29.958Z,3.6
2023-02-26T12:53:38.304Z,3.6
2023-02-26T12:54:46.852Z,6.4
2023-02-26T12:55:55.145Z,6.4
2023-02-26T12:57:03.452Z,6.4
2023-02-26T12:58:11.995Z,3.4
2023-02-26T12:59:20.350Z,3.4
2023-02-26T13:00:28.688Z,3.4
2023-02-26T13:01:37.202Z,5.7
2023-02-26T13:02:45.524Z,5.7
2023-02-26T13:03:53.919Z,5.7
2023-02-26T13:05:02.375Z,5.9
2023-02-26T13:06:10.711Z,5.9
2023-02-26T13:07:19.046Z,5.9
2023-02-26T13:08:27.581Z,2.6
2023-02-26T13:09:35.929Z,2.6
2023-02-26T13:10:44.208Z,2.6
2023-02-26T13:11:52.758Z,1
2023-02-26T13:13:01.081Z,1
2023-02-26T13:14:09.415Z,1
2023-02-26T13:15:17.922Z,3.4
2023-02-26T13:16:26.288Z,3.4
2023-02-26T13:17:34.549Z,3.4
2023-02-26T13:18:43.089Z,4.6
2023-02-26T13:19:51.403Z,4.6
2023-02-26T13:20:59.728Z,4.6
2023-02-26T13:22:08.262Z,1.6
2023-02-26T13:23:16.582Z,1.6
2023-02-26T13:24:24.909Z,1.6
2023-02-26T13:25:33.471Z,6.7
2023-02-26T13:26:41.752Z,6.7
2023-02-26T13:27:50.075Z,6.7
2023-02-26T13:28:58.621Z,5.5
2023-02-26T13:30:07.022Z,5.5
2023-02-26T13:31:15.405Z,5.5
2023-02-26T13:32:24.018Z,6.9
2023-02-26T13:33:32.158Z,6.9
2023-02-26T13:34:40.497Z,6.9
2023-02-26T13:35:49.034Z,2.7
2023-02-26T13:36:57.339Z,2.7
2023-02-26T13:38:05.711Z,2.7
2023-02-26T13:39:14.199Z,3.8
2023-02-26T13:40:22.529Z,3.8
2023-02-26T13:41:30.910Z,3.8
2023-02-26T13:42:39.409Z,2.7
2023-02-26T13:43:47.740Z,2.7
2023-02-26T13:44:56.065Z,2.7
2023-02-26T13:46:04.646Z,0.7
2023-02-26T13:47:12.938Z,0.7
2023-02-26T13:48:21.256Z,0.7
2023-02-26T13:49:29.806Z,1.1
2023-02-26T13:50:38.145Z,1.1
2023-02-26T13:51:46.475Z,1.1
2023-02-26T13:52:54.996Z,2.7
2023-02-26T13:54:03.339Z,2.7
2023-02-26T13:55:11.681Z,2.7
2023-02-26T13:56:20.213Z,1.7
2023-02-26T13:57:28.558Z,1.7
2023-02-26T13:58:36.878Z,1.7
2023-02-26T13:59:45.428Z,0.8
2023-02-26T14:00:53.744Z,0.8
2023-02-26T14:02:02.077Z,0.8
2023-02-26T14:03:10.623Z,1.1
2023-02-26T14:04:19.039Z,1.1
2023-02-26T14:05:27.276Z,1.1
2023-02-26T14:06:35.814Z,3.3
2023-02-26T14:07:44.127Z,3.3
2023-02-26T14:08:52.469Z,3.3
2023-02-26T14:10:01.010Z,3.9
2023-02-26T14:11:09.388Z,3.9
2023-02-26T14:12:17.683Z,3.9
2023-02-26T14:13:26.244Z,1.9
2023-02-26T14:14:34.549Z,1.9
2023-02-26T14:15:42.885Z,1.9
2023-02-26T14:16:51.477Z,1
2023-02-26T14:18:00.812Z,1
2023-02-26T14:19:08.079Z,1
2023-02-26T14:20:16.613Z,2.1
2023-02-26T14:21:25.333Z,2.1
2023-02-26T14:22:33.242Z,2.1
2023-02-26T14:23:41.761Z,1.2
2023-02-26T14:24:50.084Z,1.2
2023-02-26T14:25:58.406Z,1.2
2023-02-26T14:27:06.940Z,1.3
2023-02-26T14:28:15.267Z,1.3
2023-02-26T14:29:23.610Z,1.3
2023-02-26T14:30:32.171Z,1.7
2023-02-26T15:03:32.960Z,0
2023-02-26T15:04:41.278Z,0
2023-02-26T15:05:49.609Z,0
2023-02-26T15:06:58.133Z,0.6
2023-02-26T15:08:06.484Z,0.6
2023-02-26T15:09:14.815Z,0.6
2023-02-26T15:10:23.348Z,0.7
2023-02-26T15:11:31.665Z,0.7
2023-02-26T15:12:40.012Z,0.7
2023-02-26T15:13:48.550Z,0.8
2023-02-26T15:14:56.902Z,0.8
2023-02-26T15:16:05.250Z,0.8
2023-02-26T15:17:13.764Z,0.7
2023-02-26T15:18:22.094Z,0.7
2023-02-26T15:19:30.519Z,0.7
2023-02-26T15:20:38.990Z,0.6
2023-02-26T15:21:47.319Z,0.6
2023-02-26T15:22:55.668Z,0.6
2023-02-26T15:24:04.190Z,0.7
2023-02-26T15:25:12.542Z,0.7
2023-02-26T15:26:20.880Z,0.7
2023-02-26T15:27:29.406Z,0.8
2023-02-26T15:28:37.748Z,0.8
2023-02-26T15:29:46.088Z,0.8
2023-02-26T15:30:54.690Z,0.7
2023-02-26T15:32:03.062Z,0.7
2023-02-26T15:33:11.283Z,0.7
2023-02-26T15:34:19.822Z,4.4
2023-02-26T15:35:28.206Z,4.4
2023-02-26T15:36:36.488Z,4.4
2023-02-26T15:37:45.037Z,6.5
2023-02-26T15:38:53.374Z,6.5
2023-02-26T15:40:01.746Z,6.5
2023-02-26T15:41:10.271Z,8.9
2023-02-26T15:42:18.868Z,8.9
2023-02-26T15:43:27.462Z,8.9
2023-02-26T15:44:40.457Z,10.1
2023-02-26T15:45:44.311Z,10.1
2023-02-26T15:46:52.734Z,10.1
2023-02-26T15:48:01.255Z,8.1
2023-02-26T15:49:09.662Z,8.1
2023-02-26T15:50:18.031Z,8.1
2023-02-26T15:51:26.879Z,4.1
2023-02-26T15:52:35.493Z,4.1
2023-02-26T15:53:44.324Z,4.1
2023-02-26T15:54:52.915Z,17.700001
2023-02-26T15:56:01.293Z,17.700001
2023-02-26T15:57:09.655Z,17.700001
2023-02-26T15:58:18.283Z,4.2
2023-02-26T15:59:26.633Z,4.2
2023-02-26T16:00:35.033Z,4.2
2023-02-26T16:01:43.654Z,0.9
2023-02-26T16:02:52.047Z,0.9
2023-02-26T16:04:00.323Z,0.9
2023-02-26T16:05:08.891Z,8.3
2023-02-26T16:06:17.320Z,8.3
2023-02-26T16:07:25.732Z,8.3
2023-02-26T16:08:34.338Z,3.7
2023-02-26T16:09:42.754Z,3.7
2023-02-26T16:10:51.167Z,3.7
2023-02-26T16:11:59.805Z,1
2023-02-26T16:13:08.237Z,1